Flugplatz Neuburg Airport

Bericht für ETSN

vom 14.11. um 10:20 UTC

Wind 7 kt aus 70°

Sichtweite 10 km oder mehr

aufgelockert bewölkt in 900 ft

aufgebrochene Bewölkung in 17000 ft

Temperatur 3.0°C

Taupunkt 0.0°C

Luftfeuchtigkeit 81%

Luftdruck 1005 hPa

ETSN 141020Z 07007KT 9999 SCT009 BKN170 03/00 Q1005 BLU BLU+

Prognose für ETSN

vom 14.11. um 00:00 UTC

Zwischen 00:00 UTC und 00:00 UTC

Wind 5 kt aus 60°

Sichtweite 5000 m

feuchter Dunst

aufgebrochene Bewölkung in 300 ft


Zwischen 00:00 und 00:00 UTC übergehend zu

Wind 5 kt aus 70°

Sichtweite 10 km oder mehr

keine signifikanten Wettererscheinungen

aufgebrochene Bewölkung in 22000 ft

TAF ETSN 140825Z 1409/1418 06005KT 5000 BR BKN003 BECMG 1409/1411 07005KT 9999 NSW BKN220 BY ETGL
Impressum